Flushing, NY (11351)

8:21 AM EDT on October 20, 2014 (GMT -0400)
Meadow Lake | Change Station
CLOSE
Current Station
Personal Weather Station
Location: New York, NY
Elevation: -10 ft
Nearby Weather Stations

Elev -10 ft 40.73 °N, 73.84 °W | Updated 8 minutes ago

Mostly Cloudy
Mostly Cloudy
46.7 °F
Feels Like 47 °F
N
0.7
Wind Variable Wind from SW
Gusts 3.4 mph

Today
High -- | Low -- °F
--% Chance of Precip.
Yesterday
High -- | Low -- °F
Precip. -- in
7:12 AM 6:07 PM
Waning Crescent, 11% visible
Pressure 30.11 in
Visibility 10.0 miles
Clouds Few 11000 ft
Mostly Cloudy 25000 ft
Windchill 47 °F
Dew Point 34 °F
Humidity 60%
Rainfall -999.00 in
Snow Depth Not available.
UV 0 out of 12
Pollen 1.10 out of 12
Air Quality Not available.
Flu Activity Sporadic
METAR KLGA 201151Z 23004KT 10SM FEW110 BKN250 07/M01 A3011 RMK AO2 SLP194 T00721011 10072 20067 53005

More Conditions Fewer Conditions

Pressure 30.11 in
Visibility 10.0 miles
Clouds Few 11000 ft
Mostly Cloudy 25000 ft
Windchill 47 °F
Dew Point 34 °F
Humidity 60%
Rainfall -999.00 in
Snow Depth Not available.
UV 0 out of 12
Pollen 1.10 out of 12
Air Quality Not available.
Flu Activity Sporadic
METAR KLGA 201151Z 23004KT 10SM FEW110 BKN250 07/M01 A3011 RMK AO2 SLP194 T00721011 10072 20067 53005

More Conditions Fewer Conditions

10-Day Weather Forecast

Almanac

Astronomy

Oct. 20, 2014 Rise Set
Actual Time 7:12 AM EDT 6:07 PM EDT
Civil Twilight 6:44 AM EDT 6:35 PM EDT
Nautical Twilight 6:12 AM EDT 7:07 PM EDT
Astronomical Twilight 5:40 AM EDT 7:38 PM EDT
Moon 3:56 AM EDT 4:29 PM EDT
Length of Visible Light 11h 51m
Length of Day
10h 55m
Waning Crescent, 11% of the Moon is Illuminated
Today
Waning Crescent
Oct 23
New
Oct 30
First Quarter
Nov 6
Full
Nov 14
Last Quarter

Today's Extremes

State Highs State Lows

Community

WunderPhotos

Upload Photos

1,763,349 photos uploaded!

WunderBlogs® & News

Nearby

Snow Depth

Station Depth Elevation
No new snow has been reported.

Earthquake Activity

City Distance Mag. Time & Date
No recent earthquake activity has been reported nearby.
Minimum magnitude displayed is 2.5.

Coastal Water Temperatures

Place Temperature
Bridgeport, CT 64.0 °F

Nearby Weather Stations